createdAt,value
2019-02-24T00:03:27.586Z,12.64
2019-02-24T00:08:36.072Z,13.51
2019-02-24T00:13:44.514Z,12.41
2019-02-24T00:18:52.866Z,12.45
2019-02-24T00:24:01.165Z,13.25
2019-02-24T00:29:09.460Z,12.92
2019-02-24T00:34:17.592Z,13.26
2019-02-24T00:39:25.816Z,13.14
2019-02-24T00:44:34.113Z,13.42
2019-02-24T00:49:42.586Z,13.79
2019-02-24T00:54:50.921Z,13.63
2019-02-24T00:59:59.206Z,13.98
2019-02-24T01:05:07.384Z,14.50
2019-02-24T01:10:15.956Z,14.11
2019-02-24T01:15:24.132Z,14.68
2019-02-24T01:20:32.627Z,14.42
2019-02-24T01:25:41.013Z,14.52
2019-02-24T01:30:49.340Z,14.50
2019-02-24T01:35:57.768Z,14.86
2019-02-24T01:41:06.129Z,14.98
2019-02-24T01:46:14.245Z,15.74
2019-02-24T01:51:22.526Z,15.16
2019-02-24T01:56:31.366Z,15.50
2019-02-24T02:01:40.982Z,15.46
2019-02-24T02:06:39.454Z,15.68
2019-02-24T02:11:47.782Z,15.89
2019-02-24T02:16:56.011Z,16.21
2019-02-24T02:22:04.219Z,16.36
2019-02-24T02:27:12.608Z,16.65
2019-02-24T02:32:20.805Z,16.57
2019-02-24T02:37:29.159Z,17.32
2019-02-24T02:42:37.332Z,16.70
2019-02-24T02:47:45.522Z,16.69
2019-02-24T02:52:53.717Z,16.59
2019-02-24T02:58:01.904Z,16.25
2019-02-24T03:03:10.242Z,17.18
2019-02-24T03:08:18.466Z,16.99
2019-02-24T03:13:26.634Z,16.55
2019-02-24T03:18:34.916Z,17.09
2019-02-24T03:23:43.024Z,16.59
2019-02-24T03:28:51.174Z,16.76
2019-02-24T03:33:59.402Z,17.42
2019-02-24T03:39:07.526Z,17.10
2019-02-24T03:44:15.654Z,17.20
2019-02-24T03:49:23.845Z,17.26
2019-02-24T03:54:32.202Z,16.85
2019-02-24T03:59:40.529Z,17.39
2019-02-24T04:04:48.889Z,17.13
2019-02-24T04:09:57.085Z,16.93
2019-02-24T04:15:05.431Z,17.26
2019-02-24T04:20:13.720Z,17.56
2019-02-24T04:25:22.536Z,17.56
2019-02-24T04:30:30.697Z,17.52
2019-02-24T04:35:39.644Z,17.91
2019-02-24T04:40:47.698Z,18.35
2019-02-24T04:45:55.955Z,20.52
2019-02-24T04:51:04.157Z,18.60
2019-02-24T04:56:13.128Z,18.33
2019-02-24T05:01:21.354Z,18.44
2019-02-24T05:06:29.605Z,18.83
2019-02-24T05:11:37.741Z,19.71
2019-02-24T05:16:46.566Z,19.99
2019-02-24T05:21:54.656Z,18.75
2019-02-24T05:27:02.795Z,18.94
2019-02-24T05:32:10.837Z,19.33
2019-02-24T05:37:19.157Z,19.32
2019-02-24T05:42:27.329Z,19.26
2019-02-24T05:47:35.522Z,18.80
2019-02-24T05:52:43.552Z,19.75
2019-02-24T05:57:51.918Z,20.12
2019-02-24T06:03:00.047Z,20.00
2019-02-24T06:08:08.367Z,19.85
2019-02-24T06:13:16.675Z,20.56
2019-02-24T06:18:24.930Z,21.07
2019-02-24T06:23:33.370Z,20.37
2019-02-24T06:28:41.569Z,20.22
2019-02-24T06:33:49.901Z,20.65
2019-02-24T06:38:59.015Z,20.80
2019-02-24T06:44:07.392Z,20.47
2019-02-24T06:49:15.708Z,20.12
2019-02-24T06:54:23.980Z,20.45
2019-02-24T06:59:32.219Z,19.86
2019-02-24T07:04:40.499Z,20.27
2019-02-24T07:09:49.069Z,20.37
2019-02-24T07:14:57.341Z,19.66
2019-02-24T07:20:06.778Z,19.75
2019-02-24T07:25:14.921Z,20.27
2019-02-24T07:30:23.838Z,19.69
2019-02-24T07:35:30.968Z,19.33
2019-02-24T07:40:39.441Z,19.35
2019-02-24T07:45:43.351Z,19.69
2019-02-24T07:50:41.487Z,19.91
2019-02-24T07:55:49.597Z,18.30
2019-02-24T08:00:58.008Z,18.09
2019-02-24T08:06:06.425Z,17.78
2019-02-24T08:11:07.774Z,17.25
2019-02-24T08:16:15.858Z,17.13
2019-02-24T08:21:24.051Z,16.82
2019-02-24T08:26:32.227Z,16.91
2019-02-24T08:31:41.266Z,16.80
2019-02-24T08:36:49.562Z,17.86
2019-02-24T08:41:57.633Z,17.67
2019-02-24T08:47:05.806Z,17.18
2019-02-24T08:52:14.158Z,17.06
2019-02-24T08:57:22.365Z,16.61
2019-02-24T09:02:30.527Z,16.73
2019-02-24T09:07:38.941Z,16.99
2019-02-24T09:12:47.249Z,15.75
2019-02-24T09:17:55.477Z,16.65
2019-02-24T09:23:03.672Z,15.77
2019-02-24T09:28:11.792Z,16.80
2019-02-24T09:33:20.049Z,16.72
2019-02-24T09:38:28.209Z,17.22
2019-02-24T09:43:37.000Z,17.24
2019-02-24T09:48:45.179Z,18.08
2019-02-24T09:53:53.508Z,18.69
2019-02-24T09:59:01.595Z,17.57
2019-02-24T10:04:10.036Z,17.58
2019-02-24T10:09:18.122Z,17.55
2019-02-24T10:14:27.376Z,17.55
2019-02-24T10:19:35.585Z,19.06
2019-02-24T10:24:43.777Z,19.30
2019-02-24T10:29:51.933Z,18.14
2019-02-24T10:35:00.299Z,18.32
2019-02-24T10:40:08.326Z,18.47
2019-02-24T10:45:17.293Z,18.58
2019-02-24T10:50:25.373Z,18.34
2019-02-24T10:55:33.497Z,18.70
2019-02-24T11:00:41.669Z,18.23
2019-02-24T11:05:50.414Z,19.17
2019-02-24T11:10:58.586Z,19.27
2019-02-24T11:16:06.657Z,19.03
2019-02-24T11:21:14.756Z,18.48
2019-02-24T11:26:24.071Z,18.77
2019-02-24T11:31:38.149Z,18.42
2019-02-24T11:36:39.773Z,18.25
2019-02-24T11:41:48.129Z,18.40
2019-02-24T11:46:56.305Z,18.54
2019-02-24T11:52:04.938Z,18.21
2019-02-24T11:57:13.293Z,18.50
2019-02-24T12:02:21.513Z,19.00
2019-02-24T12:07:29.690Z,18.39
2019-02-24T12:12:37.957Z,18.71
2019-02-24T12:17:46.226Z,18.22
2019-02-24T12:22:54.390Z,18.25
2019-02-24T12:28:02.741Z,19.37
2019-02-24T12:33:11.198Z,17.98
2019-02-24T12:38:19.807Z,17.62
2019-02-24T12:43:28.098Z,17.48
2019-02-24T12:48:36.621Z,17.47
2019-02-24T12:53:44.862Z,17.06
2019-02-24T12:58:53.112Z,15.66
2019-02-24T13:04:01.465Z,15.31
2019-02-24T13:09:09.966Z,14.43
2019-02-24T13:14:18.097Z,13.87
2019-02-24T13:19:26.243Z,13.78
2019-02-24T13:24:34.383Z,13.50
2019-02-24T13:29:43.039Z,13.39
2019-02-24T13:34:51.338Z,14.03
2019-02-24T13:39:59.588Z,14.93
2019-02-24T13:45:07.829Z,15.85
2019-02-24T13:50:16.185Z,16.86
2019-02-24T13:55:24.431Z,16.20
2019-02-24T14:00:32.653Z,16.11
2019-02-24T14:05:40.846Z,16.58
2019-02-24T14:10:49.109Z,18.28
2019-02-24T14:15:57.618Z,16.54
2019-02-24T14:21:06.023Z,16.08
2019-02-24T14:26:14.328Z,15.69
2019-02-24T14:31:22.553Z,17.07
2019-02-24T14:36:30.994Z,20.65
2019-02-24T14:41:39.469Z,16.35
2019-02-24T14:46:48.100Z,17.13
2019-02-24T14:51:57.093Z,19.21
2019-02-24T14:57:06.943Z,15.92
2019-02-24T15:02:15.652Z,19.18
2019-02-24T15:07:24.107Z,16.17
2019-02-24T15:12:32.505Z,17.25
2019-02-24T15:17:41.563Z,16.05
2019-02-24T15:22:50.252Z,15.67
2019-02-24T15:27:58.546Z,14.83
2019-02-24T15:33:07.135Z,13.99
2019-02-24T15:38:16.323Z,18.39
2019-02-24T15:43:25.053Z,13.82
2019-02-24T15:48:33.437Z,13.21
2019-02-24T15:53:41.977Z,13.92
2019-02-24T15:58:50.265Z,14.23
2019-02-24T16:03:58.978Z,14.92
2019-02-24T16:09:07.462Z,13.21
2019-02-24T16:14:15.813Z,15.95
2019-02-24T16:19:24.350Z,16.23
2019-02-24T16:24:32.742Z,19.36
2019-02-24T16:29:41.150Z,13.86
2019-02-24T16:34:50.467Z,13.20
2019-02-24T16:39:58.682Z,12.98
2019-02-24T16:45:07.246Z,13.44
2019-02-24T16:50:15.581Z,14.05
2019-02-24T16:55:24.092Z,14.20
2019-02-24T17:00:32.766Z,15.35
2019-02-24T17:05:42.430Z,17.73
2019-02-24T17:10:50.942Z,19.17
2019-02-24T17:15:59.401Z,22.00
2019-02-24T17:21:07.609Z,20.04
2019-02-24T17:26:16.165Z,19.66
2019-02-24T17:31:28.365Z,19.43
2019-02-24T17:36:32.140Z,19.16
2019-02-24T17:41:40.325Z,18.54
2019-02-24T17:46:48.686Z,19.48
2019-02-24T17:51:56.952Z,19.40
2019-02-24T17:57:05.912Z,19.02
2019-02-24T18:02:14.153Z,19.27
2019-02-24T18:07:22.748Z,19.64
2019-02-24T18:12:30.927Z,20.92
2019-02-24T18:17:39.393Z,21.33
2019-02-24T18:22:48.553Z,21.31
2019-02-24T18:27:56.883Z,21.83
2019-02-24T18:33:05.097Z,23.56
2019-02-24T18:38:13.425Z,22.61
2019-02-24T18:43:21.649Z,22.37
2019-02-24T18:48:30.013Z,24.94
2019-02-24T18:53:38.340Z,25.50
2019-02-24T18:58:46.598Z,25.32
2019-02-24T19:03:57.630Z,26.71
2019-02-24T19:09:02.890Z,27.40
2019-02-24T19:14:11.366Z,28.03
2019-02-24T19:19:25.655Z,27.26
2019-02-24T19:24:27.447Z,27.26
2019-02-24T19:29:35.921Z,28.16
2019-02-24T19:34:44.157Z,27.95
2019-02-24T19:39:52.410Z,28.03
2019-02-24T19:45:00.564Z,28.20
2019-02-24T19:50:08.997Z,27.93
2019-02-24T19:55:17.128Z,28.98
2019-02-24T20:00:25.464Z,29.11
2019-02-24T20:05:33.758Z,31.80
2019-02-24T20:10:42.185Z,27.59
2019-02-24T20:15:50.587Z,24.24
2019-02-24T20:20:59.265Z,21.67
2019-02-24T20:26:07.669Z,23.42
2019-02-24T20:31:16.001Z,22.67
2019-02-24T20:36:24.530Z,22.23
2019-02-24T20:41:33.140Z,21.21
2019-02-24T20:46:41.797Z,21.45
2019-02-24T20:51:50.122Z,22.25
2019-02-24T20:56:59.545Z,21.77
2019-02-24T21:02:07.884Z,22.52
2019-02-24T21:07:16.076Z,22.55
2019-02-24T21:12:24.460Z,23.12
2019-02-24T21:17:32.877Z,22.90
2019-02-24T21:22:41.006Z,22.82
2019-02-24T21:27:49.253Z,22.11
2019-02-24T21:32:57.678Z,22.25
2019-02-24T21:38:05.859Z,22.41
2019-02-24T21:43:14.504Z,20.82
2019-02-24T21:48:22.669Z,20.51
2019-02-24T21:53:31.149Z,21.04
2019-02-24T21:58:39.375Z,21.56
2019-02-24T22:03:47.593Z,21.43
2019-02-24T22:08:56.008Z,22.40
2019-02-24T22:14:04.446Z,22.98
2019-02-24T22:19:04.777Z,22.46
2019-02-24T22:24:14.033Z,23.50
2019-02-24T22:29:22.182Z,22.77
2019-02-24T22:34:30.643Z,22.25
2019-02-24T22:39:38.798Z,21.60
2019-02-24T22:44:47.193Z,20.67
2019-02-24T22:49:55.425Z,21.35
2019-02-24T22:55:03.810Z,21.70
2019-02-24T23:00:10.276Z,21.27
2019-02-24T23:05:18.552Z,23.03
2019-02-24T23:10:26.896Z,20.85
2019-02-24T23:15:35.215Z,20.19
2019-02-24T23:20:43.237Z,20.20
2019-02-24T23:25:51.637Z,19.54
2019-02-24T23:30:59.756Z,19.87
2019-02-24T23:36:07.911Z,19.67
2019-02-24T23:41:16.147Z,19.69
2019-02-24T23:46:24.476Z,20.35
2019-02-24T23:51:32.694Z,20.49
2019-02-24T23:56:41.328Z,20.84
